sensor_id;sensor_type;location;lat;lon;timestamp;pressure;altitude;pressure_sealevel;temperature;humidity
3132;BME280;62090;52.330;9.104;2023-04-22T00:00:21;100445.66;;;13.82;66.22
3132;BME280;62090;52.330;9.104;2023-04-22T00:02:51;100454.22;;;13.87;66.35
3132;BME280;62090;52.330;9.104;2023-04-22T00:05:24;100455.03;;;13.82;66.46
3132;BME280;62090;52.330;9.104;2023-04-22T00:07:54;100462.72;;;13.82;66.61
3132;BME280;62090;52.330;9.104;2023-04-22T00:10:24;100461.03;;;13.79;67.02
3132;BME280;62090;52.330;9.104;2023-04-22T00:12:54;100446.38;;;13.65;66.56
3132;BME280;62090;52.330;9.104;2023-04-22T00:15:24;100465.34;;;13.91;66.10
3132;BME280;62090;52.330;9.104;2023-04-22T00:17:53;100475.72;;;14.12;65.84
3132;BME280;62090;52.330;9.104;2023-04-22T00:20:26;100450.97;;;14.11;65.16
3132;BME280;62090;52.330;9.104;2023-04-22T00:22:58;100467.25;;;14.28;64.46
3132;BME280;62090;52.330;9.104;2023-04-22T00:25:28;100460.44;;;14.27;64.34
3132;BME280;62090;52.330;9.104;2023-04-22T00:27:57;100457.03;;;14.30;63.82
3132;BME280;62090;52.330;9.104;2023-04-22T00:30:27;100445.91;;;14.29;64.05
3132;BME280;62090;52.330;9.104;2023-04-22T00:32:57;100451.91;;;14.31;63.94
3132;BME280;62090;52.330;9.104;2023-04-22T00:35:30;100445.97;;;14.38;63.91
3132;BME280;62090;52.330;9.104;2023-04-22T00:38:00;100451.97;;;14.38;63.91
3132;BME280;62090;52.330;9.104;2023-04-22T00:40:30;100440.78;;;14.29;63.92
3132;BME280;62090;52.330;9.104;2023-04-22T00:43:02;100441.66;;;14.34;64.03
3132;BME280;62090;52.330;9.104;2023-04-22T00:45:33;100447.66;;;14.32;64.13
3132;BME280;62090;52.330;9.104;2023-04-22T00:48:04;100454.47;;;14.31;64.03
3132;BME280;62090;52.330;9.104;2023-04-22T00:50:37;100437.41;;;14.35;63.70
3132;BME280;62090;52.330;9.104;2023-04-22T00:53:06;100444.28;;;14.44;63.54
3132;BME280;62090;52.330;9.104;2023-04-22T00:55:37;100452.00;;;14.47;63.46
3132;BME280;62090;52.330;9.104;2023-04-22T00:58:07;100422.00;;;14.33;63.48
3132;BME280;62090;52.330;9.104;2023-04-22T01:00:38;100397.16;;;14.11;63.85
3132;BME280;62090;52.330;9.104;2023-04-22T01:03:08;100434.84;;;14.32;63.90
3132;BME280;62090;52.330;9.104;2023-04-22T01:05:41;100426.25;;;14.25;64.59
3132;BME280;62090;52.330;9.104;2023-04-22T01:08:11;100439.03;;;14.18;64.96
3132;BME280;62090;52.330;9.104;2023-04-22T01:10:42;100427.88;;;14.05;65.16
3132;BME280;62090;52.330;9.104;2023-04-22T01:13:12;100426.13;;;14.01;65.14
3132;BME280;62090;52.330;9.104;2023-04-22T01:15:42;100432.19;;;14.15;64.88
3132;BME280;62090;52.330;9.104;2023-04-22T01:18:11;100425.28;;;14.07;65.29
3132;BME280;62090;52.330;9.104;2023-04-22T01:20:44;100427.97;;;14.25;64.75
3132;BME280;62090;52.330;9.104;2023-04-22T01:23:20;100417.69;;;14.25;64.52
3132;BME280;62090;52.330;9.104;2023-04-22T01:25:51;100416.81;;;14.18;64.86
3132;BME280;62090;52.330;9.104;2023-04-22T01:28:22;100411.66;;;14.06;65.22
3132;BME280;62090;52.330;9.104;2023-04-22T01:30:53;100412.47;;;14.02;65.54
3132;BME280;62090;52.330;9.104;2023-04-22T01:33:24;100426.16;;;14.04;65.99
3132;BME280;62090;52.330;9.104;2023-04-22T01:35:53;100423.56;;;14.01;65.82
3132;BME280;62090;52.330;9.104;2023-04-22T01:38:26;100400.47;;;13.92;66.49
3132;BME280;62090;52.330;9.104;2023-04-22T01:40:59;100419.22;;;13.88;66.79
3132;BME280;62090;52.330;9.104;2023-04-22T01:43:30;100419.31;;;14.00;66.00
3132;BME280;62090;52.330;9.104;2023-04-22T01:46:01;100409.84;;;13.88;66.25
3132;BME280;62090;52.330;9.104;2023-04-22T01:48:33;100379.81;;;13.62;66.95
3132;BME280;62090;52.330;9.104;2023-04-22T01:51:04;100429.38;;;13.73;67.38
3132;BME280;62090;52.330;9.104;2023-04-22T01:53:37;100403.69;;;13.61;67.14
3132;BME280;62090;52.330;9.104;2023-04-22T01:56:07;100400.22;;;13.52;67.53
3132;BME280;62090;52.330;9.104;2023-04-22T01:58:37;100413.03;;;13.56;67.65
3132;BME280;62090;52.330;9.104;2023-04-22T02:01:08;100413.84;;;13.48;68.34
3132;BME280;62090;52.330;9.104;2023-04-22T02:03:38;100411.25;;;13.45;67.99
3132;BME280;62090;52.330;9.104;2023-04-22T02:06:10;100408.69;;;13.44;68.29
3132;BME280;62090;52.330;9.104;2023-04-22T02:08:42;100406.97;;;13.41;68.05
3132;BME280;62090;52.330;9.104;2023-04-22T02:11:13;100411.25;;;13.45;68.02
3132;BME280;62090;52.330;9.104;2023-04-22T02:13:43;100402.75;;;13.46;68.03
3132;BME280;62090;52.330;9.104;2023-04-22T02:16:13;100403.69;;;13.58;67.33
3132;BME280;62090;52.330;9.104;2023-04-22T02:18:43;100406.31;;;13.71;66.98
3132;BME280;62090;52.330;9.104;2023-04-22T02:21:13;100405.47;;;13.71;66.71
3132;BME280;62090;52.330;9.104;2023-04-22T02:23:45;100411.44;;;13.68;66.80
3132;BME280;62090;52.330;9.104;2023-04-22T02:26:15;100381.47;;;13.60;66.60
3132;BME280;62090;52.330;9.104;2023-04-22T02:28:45;100384.06;;;13.61;66.83
3132;BME280;62090;52.330;9.104;2023-04-22T02:31:15;100386.69;;;13.75;66.46
3132;BME280;62090;52.330;9.104;2023-04-22T02:33:45;100391.81;;;13.69;66.51
3132;BME280;62090;52.330;9.104;2023-04-22T02:36:15;100402.13;;;13.87;66.07
3132;BME280;62090;52.330;9.104;2023-04-22T02:38:48;100407.25;;;13.84;66.02
3132;BME280;62090;52.330;9.104;2023-04-22T02:41:17;100408.97;;;13.88;65.97
3132;BME280;62090;52.330;9.104;2023-04-22T02:43:48;100404.47;;;13.47;67.26
3132;BME280;62090;52.330;9.104;2023-04-22T02:46:18;100403.16;;;12.97;69.44
3132;BME280;62090;52.330;9.104;2023-04-22T02:48:47;100405.53;;;12.80;70.63
3132;BME280;62090;52.330;9.104;2023-04-22T02:51:20;100376.25;;;12.49;71.38
3132;BME280;62090;52.330;9.104;2023-04-22T02:53:52;100401.91;;;12.58;71.68
3132;BME280;62090;52.330;9.104;2023-04-22T02:56:22;100387.13;;;12.30;73.49
3132;BME280;62090;52.330;9.104;2023-04-22T02:58:52;100365.41;;;11.95;74.41
3132;BME280;62090;52.330;9.104;2023-04-22T03:01:22;100375.81;;;12.10;74.50
3132;BME280;62090;52.330;9.104;2023-04-22T03:03:55;100381.66;;;12.00;75.41
3132;BME280;62090;52.330;9.104;2023-04-22T03:06:26;100378.41;;;12.13;74.93
3132;BME280;62090;52.330;9.104;2023-04-22T03:08:59;100358.66;;;12.00;74.53
3132;BME280;62090;52.330;9.104;2023-04-22T03:11:28;100374.88;;;12.03;75.26
3132;BME280;62090;52.330;9.104;2023-04-22T03:13:58;100368.97;;;12.09;74.66
3132;BME280;62090;52.330;9.104;2023-04-22T03:16:28;100371.50;;;12.07;74.71
3132;BME280;62090;52.330;9.104;2023-04-22T03:19:02;100382.81;;;12.26;74.31
3132;BME280;62090;52.330;9.104;2023-04-22T03:21:32;100389.72;;;12.35;73.52
3132;BME280;62090;52.330;9.104;2023-04-22T03:24:05;100382.09;;;12.39;73.33
3132;BME280;62090;52.330;9.104;2023-04-22T03:26:36;100386.34;;;12.36;73.49
3132;BME280;62090;52.330;9.104;2023-04-22T03:29:06;100387.22;;;12.39;73.34
3132;BME280;62090;52.330;9.104;2023-04-22T03:31:36;100386.38;;;12.37;73.33
3132;BME280;62090;52.330;9.104;2023-04-22T03:34:06;100346.16;;;12.21;73.17
3132;BME280;62090;52.330;9.104;2023-04-22T03:36:36;100379.59;;;12.44;73.07
3132;BME280;62090;52.330;9.104;2023-04-22T03:39:09;100379.63;;;12.45;73.47
3132;BME280;62090;52.330;9.104;2023-04-22T03:41:43;100381.28;;;12.43;73.20
3132;BME280;62090;52.330;9.104;2023-04-22T03:44:12;100390.63;;;12.40;72.76
3132;BME280;62090;52.330;9.104;2023-04-22T03:46:44;100381.13;;;12.26;74.02
3132;BME280;62090;52.330;9.104;2023-04-22T03:49:19;100357.94;;;12.10;73.76
3132;BME280;62090;52.330;9.104;2023-04-22T03:51:48;100360.56;;;12.16;74.32
3132;BME280;62090;52.330;9.104;2023-04-22T03:54:25;100364.81;;;12.17;73.35
3132;BME280;62090;52.330;9.104;2023-04-22T03:56:55;100365.47;;;12.01;73.33
3132;BME280;62090;52.330;9.104;2023-04-22T03:59:25;100379.66;;;11.80;74.57
3132;BME280;62090;52.330;9.104;2023-04-22T04:01:55;100321.97;;;11.31;75.29
3132;BME280;62090;52.330;9.104;2023-04-22T04:04:25;100381.06;;;11.60;76.07
3132;BME280;62090;52.330;9.104;2023-04-22T04:06:59;100364.56;;;11.38;77.03
3132;BME280;62090;52.330;9.104;2023-04-22T04:09:32;100382.38;;;11.34;78.55
3132;BME280;62090;52.330;9.104;2023-04-22T04:12:02;100376.94;;;11.13;79.16
3132;BME280;62090;52.330;9.104;2023-04-22T04:14:36;100378.69;;;11.17;79.36
3132;BME280;62090;52.330;9.104;2023-04-22T04:17:06;100363.97;;;11.00;80.48
3132;BME280;62090;52.330;9.104;2023-04-22T04:19:40;100373.56;;;11.14;80.38
3132;BME280;62090;52.330;9.104;2023-04-22T04:22:10;100371.88;;;11.16;80.29
3132;BME280;62090;52.330;9.104;2023-04-22T04:24:51;100371.78;;;11.11;80.67
3132;BME280;62090;52.330;9.104;2023-04-22T04:27:25;100365.91;;;11.14;81.02
3132;BME280;62090;52.330;9.104;2023-04-22T04:29:55;100352.28;;;11.13;80.56
3132;BME280;62090;52.330;9.104;2023-04-22T04:32:44;100345.59;;;11.21;80.41
3132;BME280;62090;52.330;9.104;2023-04-22T04:35:16;100367.16;;;11.40;80.50
3132;BME280;62090;52.330;9.104;2023-04-22T04:37:50;100360.38;;;11.42;80.12
3132;BME280;62090;52.330;9.104;2023-04-22T04:40:23;100341.69;;;11.43;79.74
3132;BME280;62090;52.330;9.104;2023-04-22T04:43:11;100350.97;;;11.36;79.87
3132;BME280;62090;52.330;9.104;2023-04-22T04:45:47;100364.84;;;11.57;79.78
3132;BME280;62090;52.330;9.104;2023-04-22T04:48:24;100362.38;;;11.61;79.50
3132;BME280;62090;52.330;9.104;2023-04-22T04:51:00;100360.69;;;11.63;79.57
3132;BME280;62090;52.330;9.104;2023-04-22T04:53:32;100355.41;;;11.51;80.25
3132;BME280;62090;52.330;9.104;2023-04-22T04:56:05;100359.69;;;11.52;81.18
3132;BME280;62090;52.330;9.104;2023-04-22T04:58:35;100356.38;;;11.59;81.29
3132;BME280;62090;52.330;9.104;2023-04-22T05:01:25;100364.22;;;11.71;80.67
3132;BME280;62090;52.330;9.104;2023-04-22T05:04:01;100366.97;;;11.83;80.20
3132;BME280;62090;52.330;9.104;2023-04-22T05:06:31;100369.53;;;11.87;79.75
3132;BME280;62090;52.330;9.104;2023-04-22T05:09:03;100360.06;;;11.76;80.40
3132;BME280;62090;52.330;9.104;2023-04-22T05:11:37;100333.56;;;11.71;79.63
3132;BME280;62090;52.330;9.104;2023-04-22T05:14:13;100329.28;;;11.67;79.66
3132;BME280;62090;52.330;9.104;2023-04-22T05:16:44;100370.72;;;12.10;79.35
3132;BME280;62090;52.330;9.104;2023-04-22T05:19:14;100369.88;;;12.12;79.43
3132;BME280;62090;52.330;9.104;2023-04-22T05:21:46;100370.94;;;12.30;78.68
3132;BME280;62090;52.330;9.104;2023-04-22T05:24:16;100381.28;;;12.40;78.32
3132;BME280;62090;52.330;9.104;2023-04-22T05:26:50;100371.19;;;12.54;78.19
3132;BME280;62090;52.330;9.104;2023-04-22T05:29:20;100385.88;;;12.75;77.70
3132;BME280;62090;52.330;9.104;2023-04-22T05:31:50;100381.00;;;12.99;76.96
3132;BME280;62090;52.330;9.104;2023-04-22T05:34:20;100337.56;;;13.06;75.96
3132;BME280;62090;52.330;9.104;2023-04-22T05:36:52;100372.06;;;13.56;75.23
3132;BME280;62090;52.330;9.104;2023-04-22T05:39:23;100369.66;;;13.77;75.59
3132;BME280;62090;52.330;9.104;2023-04-22T05:41:56;100307.25;;;13.64;75.50
3132;BME280;62090;52.330;9.104;2023-04-22T05:44:27;100359.53;;;14.03;75.72
3132;BME280;62090;52.330;9.104;2023-04-22T05:46:57;100358.69;;;14.13;76.84
3132;BME280;62090;52.330;9.104;2023-04-22T05:49:26;100365.56;;;14.14;79.35
3132;BME280;62090;52.330;9.104;2023-04-22T05:52:15;100366.47;;;14.32;79.91
3132;BME280;62090;52.330;9.104;2023-04-22T05:54:54;100375.97;;;14.58;78.88
3132;BME280;62090;52.330;9.104;2023-04-22T05:57:27;100372.56;;;14.71;78.37
3132;BME280;62090;52.330;9.104;2023-04-22T05:59:58;100369.16;;;14.76;77.90
3132;BME280;62090;52.330;9.104;2023-04-22T06:02:38;100362.34;;;14.74;78.25
3132;BME280;62090;52.330;9.104;2023-04-22T06:05:08;100365.75;;;14.79;77.15
3132;BME280;62090;52.330;9.104;2023-04-22T06:07:39;100359.78;;;14.83;75.38
3132;BME280;62090;52.330;9.104;2023-04-22T06:10:09;100351.22;;;15.02;73.46
3132;BME280;62090;52.330;9.104;2023-04-22T06:12:41;100357.19;;;15.18;72.45
3132;BME280;62090;52.330;9.104;2023-04-22T06:15:11;100354.66;;;15.27;71.04
3132;BME280;62090;52.330;9.104;2023-04-22T06:17:41;100344.34;;;15.41;70.54
3132;BME280;62090;52.330;9.104;2023-04-22T06:20:11;100341.78;;;15.47;68.67
3132;BME280;62090;52.330;9.104;2023-04-22T06:22:41;100335.75;;;15.60;67.81
3132;BME280;62090;52.330;9.104;2023-04-22T06:25:11;100345.16;;;15.72;67.48
3132;BME280;62090;52.330;9.104;2023-04-22T06:27:44;100340.88;;;15.78;66.49
3132;BME280;62090;52.330;9.104;2023-04-22T06:30:14;100342.56;;;15.84;66.66
3132;BME280;62090;52.330;9.104;2023-04-22T06:32:44;100351.94;;;15.94;66.19
3132;BME280;62090;52.330;9.104;2023-04-22T06:35:14;100352.81;;;15.91;66.52
3132;BME280;62090;52.330;9.104;2023-04-22T06:37:44;100349.47;;;15.67;67.11
3132;BME280;62090;52.330;9.104;2023-04-22T06:40:15;100370.88;;;15.70;67.76
3132;BME280;62090;52.330;9.104;2023-04-22T06:43:04;100365.75;;;15.59;67.93
3132;BME280;62090;52.330;9.104;2023-04-22T06:45:37;100356.28;;;15.72;67.81
3132;BME280;62090;52.330;9.104;2023-04-22T06:48:25;100305.81;;;15.50;67.15
3132;BME280;62090;52.330;9.104;2023-04-22T06:51:14;100353.69;;;15.84;67.02
3132;BME280;62090;52.330;9.104;2023-04-22T06:53:44;100345.91;;;16.02;66.73
3132;BME280;62090;52.330;9.104;2023-04-22T06:56:15;100345.81;;;16.28;65.35
3132;BME280;62090;52.330;9.104;2023-04-22T06:58:47;100326.75;;;16.64;63.97
3132;BME280;62090;52.330;9.104;2023-04-22T07:01:17;100300.13;;;16.68;63.17
3132;BME280;62090;52.330;9.104;2023-04-22T07:03:47;100324.72;;;17.03;62.61
3132;BME280;62090;52.330;9.104;2023-04-22T07:06:18;100331.47;;;17.16;62.44
3132;BME280;62090;52.330;9.104;2023-04-22T07:08:48;100306.56;;;17.18;61.87
3132;BME280;62090;52.330;9.104;2023-04-22T07:11:18;100311.50;;;17.39;61.97
3132;BME280;62090;52.330;9.104;2023-04-22T07:13:59;100337.03;;;17.65;62.09
3132;BME280;62090;52.330;9.104;2023-04-22T07:16:29;100330.06;;;17.71;61.90
3132;BME280;62090;52.330;9.104;2023-04-22T07:18:59;100334.28;;;17.82;60.99
3132;BME280;62090;52.330;9.104;2023-04-22T07:21:30;100306.78;;;17.79;60.04
3132;BME280;62090;52.330;9.104;2023-04-22T07:24:00;100328.84;;;18.03;60.25
3132;BME280;62090;52.330;9.104;2023-04-22T07:26:30;100312.47;;;18.05;60.39
3132;BME280;62090;52.330;9.104;2023-04-22T07:29:03;100311.69;;;17.99;60.77
3132;BME280;62090;52.330;9.104;2023-04-22T07:31:34;100334.69;;;18.17;60.73
3132;BME280;62090;52.330;9.104;2023-04-22T07:34:04;100312.41;;;18.08;60.38
3132;BME280;62090;52.330;9.104;2023-04-22T07:36:36;100331.03;;;18.32;59.76
3132;BME280;62090;52.330;9.104;2023-04-22T07:39:06;100338.63;;;18.41;59.57
3132;BME280;62090;52.330;9.104;2023-04-22T07:41:36;100344.72;;;18.38;59.02
3132;BME280;62090;52.330;9.104;2023-04-22T07:44:08;100330.97;;;18.36;58.70
3132;BME280;62090;52.330;9.104;2023-04-22T07:46:42;100346.34;;;18.44;59.07
3132;BME280;62090;52.330;9.104;2023-04-22T07:49:12;100343.56;;;18.61;58.64
3132;BME280;62090;52.330;9.104;2023-04-22T07:51:43;100328.88;;;18.64;57.94
3132;BME280;62090;52.330;9.104;2023-04-22T07:54:13;100343.41;;;18.70;57.54
3132;BME280;62090;52.330;9.104;2023-04-22T07:56:43;100335.84;;;18.59;58.66
3132;BME280;62090;52.330;9.104;2023-04-22T07:59:15;100338.94;;;18.81;58.42
3132;BME280;62090;52.330;9.104;2023-04-22T08:01:45;100329.25;;;18.93;58.60
3132;BME280;62090;52.330;9.104;2023-04-22T08:04:15;100332.31;;;19.17;57.93
3132;BME280;62090;52.330;9.104;2023-04-22T08:06:45;100332.88;;;19.34;57.26
3132;BME280;62090;52.330;9.104;2023-04-22T08:09:14;100315.69;;;19.31;56.40
3132;BME280;62090;52.330;9.104;2023-04-22T08:11:44;100316.34;;;19.42;57.03
3132;BME280;62090;52.330;9.104;2023-04-22T08:14:17;100330.81;;;19.54;56.66
3132;BME280;62090;52.330;9.104;2023-04-22T08:16:46;100323.22;;;19.44;56.84
3132;BME280;62090;52.330;9.104;2023-04-22T08:19:17;100327.25;;;19.61;56.56
3132;BME280;62090;52.330;9.104;2023-04-22T08:21:47;100329.47;;;19.78;56.14
3132;BME280;62090;52.330;9.104;2023-04-22T08:24:17;100325.78;;;19.91;54.44
3132;BME280;62090;52.330;9.104;2023-04-22T08:26:47;100306.13;;;19.83;54.87
3132;BME280;62090;52.330;9.104;2023-04-22T08:29:19;100309.41;;;19.89;57.01
3132;BME280;62090;52.330;9.104;2023-04-22T08:31:49;100328.06;;;20.05;57.84
3132;BME280;62090;52.330;9.104;2023-04-22T08:34:19;100314.00;;;20.16;57.18
3132;BME280;62090;52.330;9.104;2023-04-22T08:36:50;100319.72;;;20.31;56.03
3132;BME280;62090;52.330;9.104;2023-04-22T08:39:20;100316.28;;;20.33;55.36
3132;BME280;62090;52.330;9.104;2023-04-22T08:41:50;100320.34;;;20.43;54.85
3132;BME280;62090;52.330;9.104;2023-04-22T08:44:23;100292.91;;;20.36;55.64
3132;BME280;62090;52.330;9.104;2023-04-22T08:46:53;100312.44;;;20.51;54.39
3132;BME280;62090;52.330;9.104;2023-04-22T08:49:23;100304.94;;;20.74;53.39
3132;BME280;62090;52.330;9.104;2023-04-22T08:51:53;100302.38;;;21.08;53.00
3132;BME280;62090;52.330;9.104;2023-04-22T08:54:23;100316.97;;;21.11;53.65
3132;BME280;62090;52.330;9.104;2023-04-22T08:56:53;100318.53;;;21.19;54.50
3132;BME280;62090;52.330;9.104;2023-04-22T08:59:26;100305.50;;;21.21;53.25
3132;BME280;62090;52.330;9.104;2023-04-22T09:01:57;100293.53;;;21.17;53.47
3132;BME280;62090;52.330;9.104;2023-04-22T09:04:27;100251.00;;;20.91;52.84
3132;BME280;62090;52.330;9.104;2023-04-22T09:06:58;100274.78;;;21.05;53.81
3132;BME280;62090;52.330;9.104;2023-04-22T09:09:30;100309.91;;;21.19;53.88
3132;BME280;62090;52.330;9.104;2023-04-22T09:12:00;100267.69;;;21.14;53.94
3132;BME280;62090;52.330;9.104;2023-04-22T09:14:35;100290.06;;;21.50;52.63
3132;BME280;62090;52.330;9.104;2023-04-22T09:17:05;100289.16;;;21.51;53.95
3132;BME280;62090;52.330;9.104;2023-04-22T09:19:35;100281.03;;;21.63;52.31
3132;BME280;62090;52.330;9.104;2023-04-22T09:22:09;100288.38;;;21.78;52.82
3132;BME280;62090;52.330;9.104;2023-04-22T09:24:42;100267.72;;;21.75;52.27
3132;BME280;62090;52.330;9.104;2023-04-22T09:27:12;100287.22;;;22.18;52.34
3132;BME280;62090;52.330;9.104;2023-04-22T09:29:50;100282.88;;;22.46;50.27
3132;BME280;62090;52.330;9.104;2023-04-22T09:32:23;100282.41;;;22.61;49.91
3132;BME280;62090;52.330;9.104;2023-04-22T09:34:54;100264.41;;;22.55;51.62
3132;BME280;62090;52.330;9.104;2023-04-22T09:37:24;100291.94;;;22.61;50.93
3132;BME280;62090;52.330;9.104;2023-04-22T09:40:14;100252.13;;;22.60;50.26
3132;BME280;62090;52.330;9.104;2023-04-22T09:42:47;100281.03;;;22.78;49.78
3132;BME280;62090;52.330;9.104;2023-04-22T09:45:31;100281.53;;;22.89;51.37
3132;BME280;62090;52.330;9.104;2023-04-22T09:48:05;100270.97;;;22.93;48.00
3132;BME280;62090;52.330;9.104;2023-04-22T09:50:35;100275.03;;;23.00;48.99
3132;BME280;62090;52.330;9.104;2023-04-22T09:53:07;100283.13;;;22.93;48.52
3132;BME280;62090;52.330;9.104;2023-04-22T09:55:40;100218.84;;;22.73;49.17
3132;BME280;62090;52.330;9.104;2023-04-22T09:58:12;100243.13;;;22.97;47.48
3132;BME280;62090;52.330;9.104;2023-04-22T10:00:47;100260.41;;;22.98;48.40
3132;BME280;62090;52.330;9.104;2023-04-22T10:03:18;100260.00;;;23.10;48.94
3132;BME280;62090;52.330;9.104;2023-04-22T10:05:48;100263.53;;;23.32;49.21
3132;BME280;62090;52.330;9.104;2023-04-22T10:08:18;100230.19;;;23.20;50.03
3132;BME280;62090;52.330;9.104;2023-04-22T10:10:48;100254.56;;;23.16;48.77
3132;BME280;62090;52.330;9.104;2023-04-22T10:13:18;100231.75;;;23.24;48.04
3132;BME280;62090;52.330;9.104;2023-04-22T10:15:52;100243.47;;;23.61;47.45
3132;BME280;62090;52.330;9.104;2023-04-22T10:18:25;100228.66;;;23.63;47.28
3132;BME280;62090;52.330;9.104;2023-04-22T10:20:57;100242.56;;;23.62;46.53
3132;BME280;62090;52.330;9.104;2023-04-22T10:23:31;100240.69;;;23.65;46.56
3132;BME280;62090;52.330;9.104;2023-04-22T10:26:04;100230.09;;;23.70;46.63
3132;BME280;62090;52.330;9.104;2023-04-22T10:28:34;100244.47;;;23.80;46.17
3132;BME280;62090;52.330;9.104;2023-04-22T10:31:19;100219.47;;;23.76;45.43
3132;BME280;62090;52.330;9.104;2023-04-22T10:33:49;100239.38;;;23.77;46.50
3132;BME280;62090;52.330;9.104;2023-04-22T10:36:19;100195.97;;;23.55;46.25
3132;BME280;62090;52.330;9.104;2023-04-22T10:39:13;100206.91;;;23.64;48.03
3132;BME280;62090;52.330;9.104;2023-04-22T10:41:50;100214.16;;;23.79;46.63
3132;BME280;62090;52.330;9.104;2023-04-22T10:44:21;100234.88;;;24.04;45.40
3132;BME280;62090;52.330;9.104;2023-04-22T10:47:02;100219.50;;;23.97;44.80
3132;BME280;62090;52.330;9.104;2023-04-22T10:49:32;100223.84;;;23.97;47.13
3132;BME280;62090;52.330;9.104;2023-04-22T10:52:05;100220.81;;;24.08;47.37
3132;BME280;62090;52.330;9.104;2023-04-22T10:54:56;100202.34;;;24.14;46.60
3132;BME280;62090;52.330;9.104;2023-04-22T10:57:30;100216.22;;;24.14;45.92
3132;BME280;62090;52.330;9.104;2023-04-22T11:00:28;100191.78;;;24.18;44.67
3132;BME280;62090;52.330;9.104;2023-04-22T11:03:25;100194.88;;;24.28;44.42
3132;BME280;62090;52.330;9.104;2023-04-22T11:06:11;100158.53;;;24.25;44.49
3132;BME280;62090;52.330;9.104;2023-04-22T11:08:45;100159.84;;;24.13;45.05
3132;BME280;62090;52.330;9.104;2023-04-22T11:11:16;100175.47;;;24.13;44.85
3132;BME280;62090;52.330;9.104;2023-04-22T11:13:47;100174.41;;;24.19;44.64
3132;BME280;62090;52.330;9.104;2023-04-22T11:16:20;100177.72;;;24.22;44.76
3132;BME280;62090;52.330;9.104;2023-04-22T11:18:54;100161.84;;;24.28;45.49
3132;BME280;62090;52.330;9.104;2023-04-22T11:21:24;100153.66;;;24.37;43.53
3132;BME280;62090;52.330;9.104;2023-04-22T11:23:54;100170.41;;;24.32;45.90
3132;BME280;62090;52.330;9.104;2023-04-22T11:26:32;100152.94;;;24.12;45.46
3132;BME280;62090;52.330;9.104;2023-04-22T11:29:03;100143.81;;;24.24;46.61
3132;BME280;62090;52.330;9.104;2023-04-22T11:31:34;100158.34;;;24.50;44.43
3132;BME280;62090;52.330;9.104;2023-04-22T11:34:07;100156.84;;;24.64;44.14
3132;BME280;62090;52.330;9.104;2023-04-22T11:36:37;100145.22;;;24.53;44.96
3132;BME280;62090;52.330;9.104;2023-04-22T11:39:11;100139.16;;;24.52;44.20
3132;BME280;62090;52.330;9.104;2023-04-22T11:41:43;100106.06;;;24.34;44.53
3132;BME280;62090;52.330;9.104;2023-04-22T11:44:13;100137.38;;;24.73;42.97
3132;BME280;62090;52.330;9.104;2023-04-22T11:46:43;100132.69;;;24.81;43.87
3132;BME280;62090;52.330;9.104;2023-04-22T11:49:16;100133.94;;;24.93;42.57
3132;BME280;62090;52.330;9.104;2023-04-22T11:51:53;100126.13;;;24.93;43.27
3132;BME280;62090;52.330;9.104;2023-04-22T11:54:34;100121.28;;;24.83;43.44
3132;BME280;62090;52.330;9.104;2023-04-22T11:57:06;100137.44;;;24.92;43.65
3132;BME280;62090;52.330;9.104;2023-04-22T11:59:41;100129.75;;;24.48;44.99
3132;BME280;62090;52.330;9.104;2023-04-22T12:02:11;100121.88;;;24.29;46.34
3132;BME280;62090;52.330;9.104;2023-04-22T12:04:43;100131.16;;;24.57;46.69
3132;BME280;62090;52.330;9.104;2023-04-22T12:07:14;100134.16;;;24.48;46.18
3132;BME280;62090;52.330;9.104;2023-04-22T12:09:43;100120.94;;;24.10;47.26
3132;BME280;62090;52.330;9.104;2023-04-22T12:12:15;100131.91;;;24.18;46.90
3132;BME280;62090;52.330;9.104;2023-04-22T12:14:45;100115.56;;;24.35;45.64
3132;BME280;62090;52.330;9.104;2023-04-22T12:17:21;100100.81;;;24.35;45.93
3132;BME280;62090;52.330;9.104;2023-04-22T12:19:57;100115.72;;;24.52;45.68
3132;BME280;62090;52.330;9.104;2023-04-22T12:22:28;100121.69;;;24.74;47.79
3132;BME280;62090;52.330;9.104;2023-04-22T12:24:59;100115.06;;;24.86;46.42
3132;BME280;62090;52.330;9.104;2023-04-22T12:27:29;100077.66;;;24.68;45.97
3132;BME280;62090;52.330;9.104;2023-04-22T12:29:59;100105.47;;;24.88;45.07
3132;BME280;62090;52.330;9.104;2023-04-22T12:32:30;100104.28;;;24.75;45.31
3132;BME280;62090;52.330;9.104;2023-04-22T12:35:03;100110.78;;;24.85;45.79
3132;BME280;62090;52.330;9.104;2023-04-22T12:37:34;100102.59;;;24.74;46.30
3132;BME280;62090;52.330;9.104;2023-04-22T12:40:05;100110.03;;;24.63;45.82
3132;BME280;62090;52.330;9.104;2023-04-22T12:42:36;100108.94;;;24.87;46.26
3132;BME280;62090;52.330;9.104;2023-04-22T12:45:07;100075.94;;;24.88;46.50
3132;BME280;62090;52.330;9.104;2023-04-22T12:47:37;100103.81;;;25.06;47.20
3132;BME280;62090;52.330;9.104;2023-04-22T12:50:10;100101.75;;;25.12;45.78
3132;BME280;62090;52.330;9.104;2023-04-22T12:52:40;100090.13;;;25.19;45.96
3132;BME280;62090;52.330;9.104;2023-04-22T12:55:09;100079.69;;;25.19;46.33
3132;BME280;62090;52.330;9.104;2023-04-22T12:57:39;100077.38;;;25.13;45.29
3132;BME280;62090;52.330;9.104;2023-04-22T13:00:10;100073.78;;;24.77;45.60
3132;BME280;62090;52.330;9.104;2023-04-22T13:02:42;100062.88;;;24.69;45.07
3132;BME280;62090;52.330;9.104;2023-04-22T13:05:16;100090.31;;;24.96;45.03
3132;BME280;62090;52.330;9.104;2023-04-22T13:07:46;100081.75;;;24.94;46.13
3132;BME280;62090;52.330;9.104;2023-04-22T13:10:32;100071.03;;;24.80;45.66
3132;BME280;62090;52.330;9.104;2023-04-22T13:13:02;100083.50;;;24.73;45.68
3132;BME280;62090;52.330;9.104;2023-04-22T13:15:37;100088.50;;;24.78;45.27
3132;BME280;62090;52.330;9.104;2023-04-22T13:18:07;100035.88;;;24.90;45.78
3132;BME280;62090;52.330;9.104;2023-04-22T13:20:39;100058.25;;;25.13;45.74
3132;BME280;62090;52.330;9.104;2023-04-22T13:23:09;100065.69;;;25.22;44.24
3132;BME280;62090;52.330;9.104;2023-04-22T13:25:40;100051.97;;;25.36;45.73